»·PEaware :: WAT169 KLAS-KSAN

WAT169 :: KLAS-KSAN

FLIGHT INFORMATION

Flight Status: Arrived
Operator:
Walker Air Transport
More flights by this operator :: More flights under this callsign
Pilot: Marty P. (27464)
Aircraft: BOEING 737-800
(B738)
More flights by this aircraft type
Origin: KLAS McCarran Intl
United States
Destination: KSAN San Diego Intl-Lindbergh
United States
More flights between these airports :: More routes between these airports
Route: +BOACH8 LVELL LUCKI1
File this flight plan on PilotEdge
Remarks:
Altitude:
(Current/Filed)
30,000ft
Speed:
(Current/Filed)
480kts
Departed: 12-Sep-20 08:34 AM
Arrived: 12-Sep-20 09:18 AM
Distance/Time
Traveled:
225nm/0:44
Distance/Time
To Go:
Arrived

Flight Plot

Page will automatically refresh every two minutes.

Flight plan parsing failed; only flown route is shown


Map Options




Map Legend


Flown Route
Filed Route
Departure Airport
Arrival Airport
Navaid (VOR, NDB)
Fix

Horizontal Profiles

Position Reports

Time Latitude Longitude Heading Altitude Ground
Speed
12-Sep-20 08:02 36.081007 -115.147687 66 2191ft 0kts
12-Sep-20 08:03 36.081007 -115.147687 66 2191ft 0kts
12-Sep-20 08:04 36.081007 -115.147687 66 2191ft 0kts
12-Sep-20 08:05 36.081007 -115.147687 66 2191ft 0kts
12-Sep-20 08:06 36.081007 -115.147687 66 2191ft 0kts
12-Sep-20 08:07 36.081007 -115.147687 66 2191ft 0kts
12-Sep-20 08:08 36.081007 -115.147687 66 2191ft 0kts
12-Sep-20 08:09 36.081007 -115.147687 66 2191ft 0kts
12-Sep-20 08:10 36.081007 -115.147687 66 2191ft 0kts
12-Sep-20 08:11 36.081007 -115.147687 66 2191ft 0kts
12-Sep-20 08:12 36.081007 -115.147687 66 2191ft 0kts
12-Sep-20 08:13 36.081007 -115.147687 66 2191ft 0kts
12-Sep-20 08:14 36.081007 -115.147687 66 2191ft 0kts
12-Sep-20 08:15 36.081007 -115.147687 66 2191ft 0kts
12-Sep-20 08:16 36.081007 -115.147687 66 2191ft 0kts
12-Sep-20 08:18 36.081007 -115.147687 66 2191ft 0kts
12-Sep-20 08:19 36.081007 -115.147688 66 2191ft 0kts
12-Sep-20 08:20 36.080964 -115.147811 66 2191ft 2kts
12-Sep-20 08:21 36.081033 -115.148469 136 2191ft 2kts
12-Sep-20 08:22 36.081206 -115.148604 155 2191ft 0kts
12-Sep-20 08:23 36.081206 -115.148604 155 2191ft 0kts
12-Sep-20 08:24 36.081028 -115.148499 154 2191ft 4kts
12-Sep-20 08:25 36.080022 -115.147920 155 2191ft 0kts
12-Sep-20 08:26 36.080022 -115.147920 155 2191ft 0kts
12-Sep-20 08:27 36.079278 -115.147500 156 2191ft 7kts
12-Sep-20 08:28 36.078265 -115.143211 91 2191ft 16kts
12-Sep-20 08:29 36.078270 -115.136847 90 2191ft 23kts
12-Sep-20 08:30 36.078277 -115.128844 91 2191ft 22kts
12-Sep-20 08:31 36.078070 -115.122419 123 2191ft 11kts
12-Sep-20 08:32 36.077454 -115.121495 139 2191ft 0kts
12-Sep-20 08:32 36.077219 -115.121339 164 2191ft 7kts
12-Sep-20 08:34 36.076418 -115.133748 269 2192ft 139kts
12-Sep-20 08:35 36.077001 -115.197270 270 4252ft 217kts
12-Sep-20 08:35 36.053658 -115.260309 217 6300ft 273kts
12-Sep-20 08:37 35.968988 -115.300643 190 10199ft 295kts
12-Sep-20 08:38 35.876820 -115.312874 182 11834ft 363kts
12-Sep-20 08:38 35.792216 -115.307816 172 14178ft 374kts
12-Sep-20 08:39 35.687635 -115.295776 174 16805ft 390kts
12-Sep-20 08:41 35.558909 -115.299271 181 19586ft 407kts
12-Sep-20 08:41 35.463830 -115.303123 181 21427ft 417kts
12-Sep-20 08:42 35.346694 -115.307778 181 23118ft 433kts
12-Sep-20 08:43 35.228378 -115.312453 181 23077ft 426kts
12-Sep-20 08:44 35.110220 -115.317101 181 23560ft 431kts
12-Sep-20 08:45 34.990186 -115.321799 182 25354ft 441kts
12-Sep-20 08:46 34.868391 -115.326616 184 27117ft 447kts
12-Sep-20 08:47 34.748840 -115.353135 197 29103ft 440kts
12-Sep-20 08:48 34.633431 -115.397672 201 30053ft 450kts
12-Sep-20 08:49 34.513788 -115.448506 201 30128ft 471kts
12-Sep-20 08:50 34.389386 -115.502316 202 30127ft 487kts
12-Sep-20 08:51 34.271238 -115.573975 212 30127ft 482kts
12-Sep-20 08:52 34.149631 -115.640769 204 30128ft 484kts
12-Sep-20 08:53 34.029450 -115.699550 203 30128ft 485kts
12-Sep-20 08:54 33.908092 -115.757316 203 30123ft 454kts
12-Sep-20 08:55 33.804329 -115.808350 204 30133ft 425kts
12-Sep-20 08:56 33.694639 -115.860760 203 29674ft 422kts
12-Sep-20 08:57 33.588669 -115.910222 203 27446ft 411kts
12-Sep-20 08:58 33.500020 -115.985083 229 25727ft 384kts
12-Sep-20 08:59 33.436021 -116.083539 235 23750ft 375kts
12-Sep-20 09:00 33.377181 -116.182713 235 21772ft 367kts
12-Sep-20 09:01 33.307130 -116.266998 210 19789ft 362kts
12-Sep-20 09:02 33.218723 -116.319745 206 17879ft 354kts
12-Sep-20 09:03 33.132544 -116.370141 206 16081ft 343kts
12-Sep-20 09:04 33.048983 -116.418985 206 14250ft 336kts
12-Sep-20 09:05 32.972853 -116.476983 220 12514ft 328kts
12-Sep-20 09:06 32.904719 -116.545993 220 10735ft 322kts
12-Sep-20 09:07 32.841039 -116.610173 219 9984ft 288kts
12-Sep-20 09:08 32.782902 -116.669286 224 8628ft 279kts
12-Sep-20 09:09 32.741550 -116.745962 240 7237ft 280kts
12-Sep-20 09:10 32.705869 -116.823289 246 5916ft 257kts
12-Sep-20 09:11 32.681241 -116.903106 251 4975ft 245kts
12-Sep-20 09:12 32.681371 -116.976239 287 4414ft 214kts
12-Sep-20 09:13 32.697832 -117.042996 287 2609ft 203kts
12-Sep-20 09:14 32.711152 -117.097552 286 1560ft 148kts
12-Sep-20 09:15 32.722598 -117.144527 286 732ft 147kts
12-Sep-20 09:16 32.733523 -117.189589 286 28ft 104kts
12-Sep-20 09:17 32.734955 -117.199025 264 27ft 0kts
12-Sep-20 09:18 32.735260 -117.200928 286 27ft 19kts
12-Sep-20 09:19 32.734893 -117.203757 193 27ft 6kts
12-Sep-20 09:20 32.734647 -117.203833 194 27ft 0kts
12-Sep-20 09:21 32.734647 -117.203833 194 27ft 0kts

Navigation Log

Ident Type
Flight plan parsing failed, navigation log unavailable